sensor_id;sensor_type;location;lat;lon;timestamp;pressure;altitude;pressure_sealevel;temperature;humidity
48926;BME280;39838;59.938;30.642;2023-07-28T00:01:18;99485.25;;;14.64;89.32
48926;BME280;39838;59.938;30.642;2023-07-28T00:03:45;99481.16;;;14.56;89.52
48926;BME280;39838;59.938;30.642;2023-07-28T00:06:12;99484.03;;;14.48;90.08
48926;BME280;39838;59.938;30.642;2023-07-28T00:08:40;99484.19;;;14.42;89.98
48926;BME280;39838;59.938;30.642;2023-07-28T00:11:09;99484.34;;;14.37;90.68
48926;BME280;39838;59.938;30.642;2023-07-28T00:13:39;99474.94;;;14.32;90.41
48926;BME280;39838;59.938;30.642;2023-07-28T00:16:07;99476.78;;;14.28;90.55
48926;BME280;39838;59.938;30.642;2023-07-28T00:18:34;99463.91;;;14.22;90.39
48926;BME280;39838;59.938;30.642;2023-07-28T00:21:02;99468.34;;;14.20;90.56
48926;BME280;39838;59.938;30.642;2023-07-28T00:23:29;99460.50;;;14.20;90.92
48926;BME280;39838;59.938;30.642;2023-07-28T00:25:56;99458.84;;;14.17;91.28
48926;BME280;39838;59.938;30.642;2023-07-28T00:28:23;99452.78;;;14.15;91.74
48926;BME280;39838;59.938;30.642;2023-07-28T00:30:52;99446.78;;;14.13;92.08
48926;BME280;39838;59.938;30.642;2023-07-28T00:33:19;99456.44;;;14.11;93.01
48926;BME280;39838;59.938;30.642;2023-07-28T00:35:46;99450.41;;;14.09;93.97
48926;BME280;39838;59.938;30.642;2023-07-28T00:38:14;99446.06;;;14.08;94.01
48926;BME280;39838;59.938;30.642;2023-07-28T00:40:41;99431.41;;;14.04;93.86
48926;BME280;39838;59.938;30.642;2023-07-28T00:43:08;99422.78;;;14.02;94.54
48926;BME280;39838;59.938;30.642;2023-07-28T00:45:35;99434.16;;;14.00;94.24
48926;BME280;39838;59.938;30.642;2023-07-28T00:48:08;99401.66;;;13.82;94.27
48926;BME280;39838;59.938;30.642;2023-07-28T00:50:37;99416.00;;;13.95;93.99
48926;BME280;39838;59.938;30.642;2023-07-28T00:53:05;99416.91;;;13.94;94.47
48926;BME280;39838;59.938;30.642;2023-07-28T00:55:32;99413.50;;;13.92;94.36
48926;BME280;39838;59.938;30.642;2023-07-28T00:57:59;99417.00;;;13.91;94.11
48926;BME280;39838;59.938;30.642;2023-07-28T01:00:26;99421.44;;;13.89;94.31
48926;BME280;39838;59.938;30.642;2023-07-28T01:02:53;99414.59;;;13.85;94.41
48926;BME280;39838;59.938;30.642;2023-07-28T01:05:27;99395.69;;;13.77;94.10
48926;BME280;39838;59.938;30.642;2023-07-28T01:08:00;99415.50;;;13.84;94.22
48926;BME280;39838;59.938;30.642;2023-07-28T01:10:31;99421.63;;;13.83;93.85
48926;BME280;39838;59.938;30.642;2023-07-28T01:12:58;99411.19;;;13.83;93.89
48926;BME280;39838;59.938;30.642;2023-07-28T01:15:26;99409.47;;;13.82;93.68
48926;BME280;39838;59.938;30.642;2023-07-28T01:17:53;99407.75;;;13.81;93.45
48926;BME280;39838;59.938;30.642;2023-07-28T01:20:22;99388.78;;;13.76;93.93
48926;BME280;39838;59.938;30.642;2023-07-28T01:23:05;99405.22;;;13.78;93.70
48926;BME280;39838;59.938;30.642;2023-07-28T01:25:43;99395.78;;;13.74;93.56
48926;BME280;39838;59.938;30.642;2023-07-28T01:28:17;99404.31;;;13.79;92.83
48926;BME280;39838;59.938;30.642;2023-07-28T01:30:44;99401.72;;;13.79;92.61
48926;BME280;39838;59.938;30.642;2023-07-28T01:33:12;99409.50;;;13.80;92.47
48926;BME280;39838;59.938;30.642;2023-07-28T01:35:39;99404.25;;;13.82;92.30
48926;BME280;39838;59.938;30.642;2023-07-28T01:38:06;99406.88;;;13.82;91.92
48926;BME280;39838;59.938;30.642;2023-07-28T01:40:33;99408.50;;;13.84;91.66
48926;BME280;39838;59.938;30.642;2023-07-28T01:43:00;99406.75;;;13.85;91.14
48926;BME280;39838;59.938;30.642;2023-07-28T01:45:30;99410.09;;;13.88;90.97
48926;BME280;39838;59.938;30.642;2023-07-28T01:47:57;99395.31;;;13.89;90.62
48926;BME280;39838;59.938;30.642;2023-07-28T01:50:24;99399.47;;;13.94;90.04
48926;BME280;39838;59.938;30.642;2023-07-28T01:52:51;99393.38;;;13.96;89.85
48926;BME280;39838;59.938;30.642;2023-07-28T01:55:18;99390.72;;;13.97;89.55
48926;BME280;39838;59.938;30.642;2023-07-28T01:57:53;99374.34;;;13.92;89.62
48926;BME280;39838;59.938;30.642;2023-07-28T02:00:20;99371.06;;;13.85;89.68
48926;BME280;39838;59.938;30.642;2023-07-28T02:02:49;99372.94;;;13.80;89.99
48926;BME280;39838;59.938;30.642;2023-07-28T02:05:17;99374.91;;;13.74;89.41
48926;BME280;39838;59.938;30.642;2023-07-28T02:07:44;99371.50;;;13.72;89.21
48926;BME280;39838;59.938;30.642;2023-07-28T02:10:11;99366.38;;;13.69;89.35
48926;BME280;39838;59.938;30.642;2023-07-28T02:12:40;99366.41;;;13.67;89.02
48926;BME280;39838;59.938;30.642;2023-07-28T02:15:08;99370.81;;;13.65;88.56
48926;BME280;39838;59.938;30.642;2023-07-28T02:17:36;99379.44;;;13.67;88.48
48926;BME280;39838;59.938;30.642;2023-07-28T02:20:05;99386.34;;;13.70;88.08
48926;BME280;39838;59.938;30.642;2023-07-28T02:22:36;99380.22;;;13.71;88.11
48926;BME280;39838;59.938;30.642;2023-07-28T02:25:04;99386.16;;;13.76;87.75
48926;BME280;39838;59.938;30.642;2023-07-28T02:27:33;99378.22;;;13.79;87.86
48926;BME280;39838;59.938;30.642;2023-07-28T02:30:00;99368.59;;;13.81;87.42
48926;BME280;39838;59.938;30.642;2023-07-28T02:32:32;99357.25;;;13.82;87.28
48926;BME280;39838;59.938;30.642;2023-07-28T02:35:00;99349.56;;;13.77;87.55
48926;BME280;39838;59.938;30.642;2023-07-28T02:37:31;99337.44;;;13.75;87.09
48926;BME280;39838;59.938;30.642;2023-07-28T02:39:58;99329.72;;;13.72;88.18
48926;BME280;39838;59.938;30.642;2023-07-28T02:42:25;99317.66;;;13.68;87.74
48926;BME280;39838;59.938;30.642;2023-07-28T02:44:53;99302.53;;;13.51;88.45
48926;BME280;39838;59.938;30.642;2023-07-28T02:47:20;99310.84;;;13.63;88.37
48926;BME280;39838;59.938;30.642;2023-07-28T02:49:47;99310.94;;;13.60;88.83
48926;BME280;39838;59.938;30.642;2023-07-28T02:52:14;99317.09;;;13.58;88.63
48926;BME280;39838;59.938;30.642;2023-07-28T02:54:43;99319.84;;;13.53;89.40
48926;BME280;39838;59.938;30.642;2023-07-28T02:57:10;99328.56;;;13.52;89.57
48926;BME280;39838;59.938;30.642;2023-07-28T02:59:37;99335.59;;;13.50;89.34
48926;BME280;39838;59.938;30.642;2023-07-28T03:02:05;99338.16;;;13.52;89.36
48926;BME280;39838;59.938;30.642;2023-07-28T03:04:32;99335.59;;;13.50;89.61
48926;BME280;39838;59.938;30.642;2023-07-28T03:06:59;99332.94;;;13.52;89.47
48926;BME280;39838;59.938;30.642;2023-07-28T03:09:26;99309.50;;;13.50;89.41
48926;BME280;39838;59.938;30.642;2023-07-28T03:11:55;99308.66;;;13.50;89.37
48926;BME280;39838;59.938;30.642;2023-07-28T03:14:22;99312.00;;;13.53;89.74
48926;BME280;39838;59.938;30.642;2023-07-28T03:16:49;99302.44;;;13.54;89.94
48926;BME280;39838;59.938;30.642;2023-07-28T03:19:17;99313.69;;;13.56;89.41
48926;BME280;39838;59.938;30.642;2023-07-28T03:21:44;99310.00;;;13.63;89.58
48926;BME280;39838;59.938;30.642;2023-07-28T03:24:11;99313.41;;;13.65;89.38
48926;BME280;39838;59.938;30.642;2023-07-28T03:26:38;99313.22;;;13.71;89.37
48926;BME280;39838;59.938;30.642;2023-07-28T03:29:07;99309.63;;;13.75;89.08
48926;BME280;39838;59.938;30.642;2023-07-28T03:31:34;99304.28;;;13.78;89.13
48926;BME280;39838;59.938;30.642;2023-07-28T03:34:02;99302.38;;;13.83;88.57
48926;BME280;39838;59.938;30.642;2023-07-28T03:36:29;99296.13;;;13.89;88.96
48926;BME280;39838;59.938;30.642;2023-07-28T03:38:57;99276.94;;;13.90;88.71
48926;BME280;39838;59.938;30.642;2023-07-28T03:41:24;99282.09;;;13.91;88.94
48926;BME280;39838;59.938;30.642;2023-07-28T03:43:51;99279.50;;;13.91;88.59
48926;BME280;39838;59.938;30.642;2023-07-28T03:46:20;99281.31;;;13.89;89.04
48926;BME280;39838;59.938;30.642;2023-07-28T03:48:47;99275.31;;;13.86;89.59
48926;BME280;39838;59.938;30.642;2023-07-28T03:51:14;99281.56;;;13.82;89.65
48926;BME280;39838;59.938;30.642;2023-07-28T03:53:41;99269.69;;;13.72;90.33
48926;BME280;39838;59.938;30.642;2023-07-28T03:56:08;99271.66;;;13.65;91.16
48926;BME280;39838;59.938;30.642;2023-07-28T03:58:36;99268.38;;;13.58;92.12
48926;BME280;39838;59.938;30.642;2023-07-28T04:01:03;99279.81;;;13.54;92.11
48926;BME280;39838;59.938;30.642;2023-07-28T04:03:35;99267.78;;;13.50;92.69
48926;BME280;39838;59.938;30.642;2023-07-28T04:06:05;99267.84;;;13.47;92.63
48926;BME280;39838;59.938;30.642;2023-07-28T04:08:33;99267.81;;;13.49;93.30
48926;BME280;39838;59.938;30.642;2023-07-28T04:11:00;99268.63;;;13.51;93.26
48926;BME280;39838;59.938;30.642;2023-07-28T04:13:28;99259.03;;;13.51;93.36
48926;BME280;39838;59.938;30.642;2023-07-28T04:15:55;99257.22;;;13.53;93.54
48926;BME280;39838;59.938;30.642;2023-07-28T04:18:22;99246.75;;;13.55;93.68
48926;BME280;39838;59.938;30.642;2023-07-28T04:20:51;99243.25;;;13.56;94.11
48926;BME280;39838;59.938;30.642;2023-07-28T04:23:18;99248.34;;;13.59;93.94
48926;BME280;39838;59.938;30.642;2023-07-28T04:25:45;99237.84;;;13.60;94.11
48926;BME280;39838;59.938;30.642;2023-07-28T04:28:12;99239.56;;;13.61;94.47
48926;BME280;39838;59.938;30.642;2023-07-28T04:30:40;99241.38;;;13.59;94.23
48926;BME280;39838;59.938;30.642;2023-07-28T04:33:07;99243.06;;;13.60;94.23
48926;BME280;39838;59.938;30.642;2023-07-28T04:35:34;99232.63;;;13.60;94.66
48926;BME280;39838;59.938;30.642;2023-07-28T04:38:03;99244.78;;;13.61;94.56
48926;BME280;39838;59.938;30.642;2023-07-28T04:40:30;99239.47;;;13.64;94.82
48926;BME280;39838;59.938;30.642;2023-07-28T04:42:57;99238.47;;;13.69;94.76
48926;BME280;39838;59.938;30.642;2023-07-28T04:45:24;99236.59;;;13.72;94.72
48926;BME280;39838;59.938;30.642;2023-07-28T04:47:51;99227.03;;;13.73;95.27
48926;BME280;39838;59.938;30.642;2023-07-28T04:50:18;99223.63;;;13.71;95.62
48926;BME280;39838;59.938;30.642;2023-07-28T04:52:46;99228.00;;;13.70;95.85
48926;BME280;39838;59.938;30.642;2023-07-28T04:55:14;99219.34;;;13.68;96.67
48926;BME280;39838;59.938;30.642;2023-07-28T04:57:41;99224.59;;;13.66;96.63
48926;BME280;39838;59.938;30.642;2023-07-28T05:00:10;99225.53;;;13.65;97.13
48926;BME280;39838;59.938;30.642;2023-07-28T05:02:37;99228.91;;;13.68;97.68
48926;BME280;39838;59.938;30.642;2023-07-28T05:05:04;99230.66;;;13.69;97.80
48926;BME280;39838;59.938;30.642;2023-07-28T05:07:32;99228.97;;;13.66;97.45
48926;BME280;39838;59.938;30.642;2023-07-28T05:09:59;99222.97;;;13.64;97.52
48926;BME280;39838;59.938;30.642;2023-07-28T05:12:27;99216.84;;;13.65;98.19
48926;BME280;39838;59.938;30.642;2023-07-28T05:14:54;99213.44;;;13.63;98.21
48926;BME280;39838;59.938;30.642;2023-07-28T05:17:22;99213.47;;;13.61;98.17
48926;BME280;39838;59.938;30.642;2023-07-28T05:19:49;99208.34;;;13.58;98.94
48926;BME280;39838;59.938;30.642;2023-07-28T05:22:17;99199.13;;;13.48;98.87
48926;BME280;39838;59.938;30.642;2023-07-28T05:24:45;99206.06;;;13.49;99.00
48926;BME280;39838;59.938;30.642;2023-07-28T05:27:12;99214.78;;;13.48;99.24
48926;BME280;39838;59.938;30.642;2023-07-28T05:29:41;99204.50;;;13.44;99.93
48926;BME280;39838;59.938;30.642;2023-07-28T05:32:08;99201.78;;;13.47;99.88
48926;BME280;39838;59.938;30.642;2023-07-28T05:34:35;99207.75;;;13.50;100.00
48926;BME280;39838;59.938;30.642;2023-07-28T05:37:03;99203.44;;;13.49;100.00
48926;BME280;39838;59.938;30.642;2023-07-28T05:39:30;99203.44;;;13.49;100.00
48926;BME280;39838;59.938;30.642;2023-07-28T05:41:57;99203.44;;;13.49;100.00
48926;BME280;39838;59.938;30.642;2023-07-28T05:44:25;99205.94;;;13.52;99.84
48926;BME280;39838;59.938;30.642;2023-07-28T05:46:53;99201.63;;;13.51;99.90
48926;BME280;39838;59.938;30.642;2023-07-28T05:49:20;99198.13;;;13.52;99.67
48926;BME280;39838;59.938;30.642;2023-07-28T05:51:47;99205.03;;;13.53;99.76
48926;BME280;39838;59.938;30.642;2023-07-28T05:54:16;99192.03;;;13.52;99.55
48926;BME280;39838;59.938;30.642;2023-07-28T05:56:43;99196.28;;;13.54;99.74
48926;BME280;39838;59.938;30.642;2023-07-28T05:59:10;99184.16;;;13.53;99.31
48926;BME280;39838;59.938;30.642;2023-07-28T06:01:37;99172.09;;;13.51;99.75
48926;BME280;39838;59.938;30.642;2023-07-28T06:04:06;99170.44;;;13.48;99.76
48926;BME280;39838;59.938;30.642;2023-07-28T06:06:33;99164.44;;;13.45;99.08
48926;BME280;39838;59.938;30.642;2023-07-28T06:09:00;99185.38;;;13.43;98.37
48926;BME280;39838;59.938;30.642;2023-07-28T06:11:27;99177.16;;;13.29;97.64
48926;BME280;39838;59.938;30.642;2023-07-28T06:13:55;99183.47;;;13.22;97.03
48926;BME280;39838;59.938;30.642;2023-07-28T06:16:22;99182.78;;;13.13;96.81
48926;BME280;39838;59.938;30.642;2023-07-28T06:18:50;99179.63;;;13.04;96.51
48926;BME280;39838;59.938;30.642;2023-07-28T06:21:19;99182.53;;;12.95;96.62
48926;BME280;39838;59.938;30.642;2023-07-28T06:23:46;99176.53;;;12.91;96.62
48926;BME280;39838;59.938;30.642;2023-07-28T06:26:13;99172.47;;;12.82;96.82
48926;BME280;39838;59.938;30.642;2023-07-28T06:28:40;99173.38;;;12.81;97.39
48926;BME280;39838;59.938;30.642;2023-07-28T06:31:07;99157.16;;;12.72;97.19
48926;BME280;39838;59.938;30.642;2023-07-28T06:33:36;99172.72;;;12.75;97.72
48926;BME280;39838;59.938;30.642;2023-07-28T06:36:03;99152.72;;;12.75;97.53
48926;BME280;39838;59.938;30.642;2023-07-28T06:38:32;99156.13;;;12.77;97.91
48926;BME280;39838;59.938;30.642;2023-07-28T06:41:00;99156.97;;;12.78;98.03
48926;BME280;39838;59.938;30.642;2023-07-28T06:43:27;99158.59;;;12.82;98.07
48926;BME280;39838;59.938;30.642;2023-07-28T06:45:54;99147.25;;;12.83;98.28
48926;BME280;39838;59.938;30.642;2023-07-28T06:48:21;99166.31;;;12.85;98.00
48926;BME280;39838;59.938;30.642;2023-07-28T06:50:49;99148.97;;;12.84;98.34
48926;BME280;39838;59.938;30.642;2023-07-28T06:53:16;99141.09;;;12.85;98.35
48926;BME280;39838;59.938;30.642;2023-07-28T06:55:44;99156.69;;;12.87;98.63
48926;BME280;39838;59.938;30.642;2023-07-28T06:58:12;99150.47;;;12.91;98.56
48926;BME280;39838;59.938;30.642;2023-07-28T07:00:39;99146.03;;;12.95;98.28
48926;BME280;39838;59.938;30.642;2023-07-28T07:03:06;99135.44;;;12.99;98.26
48926;BME280;39838;59.938;30.642;2023-07-28T07:05:33;99133.56;;;13.04;97.95
48926;BME280;39838;59.938;30.642;2023-07-28T07:08:00;99129.97;;;13.07;98.22
48926;BME280;39838;59.938;30.642;2023-07-28T07:10:28;99135.06;;;13.11;98.51
48926;BME280;39838;59.938;30.642;2023-07-28T07:12:57;99125.44;;;13.13;98.69
48926;BME280;39838;59.938;30.642;2023-07-28T07:15:25;99135.66;;;13.20;98.91
48926;BME280;39838;59.938;30.642;2023-07-28T07:17:52;99140.72;;;13.26;98.46
48926;BME280;39838;59.938;30.642;2023-07-28T07:20:19;99131.00;;;13.31;98.94
48926;BME280;39838;59.938;30.642;2023-07-28T07:22:46;99130.69;;;13.40;98.92
48926;BME280;39838;59.938;30.642;2023-07-28T07:25:13;99124.31;;;13.49;98.71
48926;BME280;39838;59.938;30.642;2023-07-28T07:27:41;99126.72;;;13.55;98.72
48926;BME280;39838;59.938;30.642;2023-07-28T07:30:10;99136.25;;;13.56;98.37
48926;BME280;39838;59.938;30.642;2023-07-28T07:32:37;99132.81;;;13.54;98.56
48926;BME280;39838;59.938;30.642;2023-07-28T07:35:05;99131.03;;;13.56;98.47
48926;BME280;39838;59.938;30.642;2023-07-28T07:37:34;99115.38;;;13.56;98.38
48926;BME280;39838;59.938;30.642;2023-07-28T07:40:01;99144.03;;;13.57;98.55
48926;BME280;39838;59.938;30.642;2023-07-28T07:42:40;99118.03;;;13.54;98.24
48926;BME280;39838;59.938;30.642;2023-07-28T07:45:11;99111.94;;;13.54;97.92
48926;BME280;39838;59.938;30.642;2023-07-28T07:47:39;99123.16;;;13.57;97.94
48926;BME280;39838;59.938;30.642;2023-07-28T07:50:07;99117.94;;;13.57;97.74
48926;BME280;39838;59.938;30.642;2023-07-28T07:52:35;99113.50;;;13.59;97.99
48926;BME280;39838;59.938;30.642;2023-07-28T07:55:03;99116.03;;;13.62;98.07
48926;BME280;39838;59.938;30.642;2023-07-28T07:57:32;99122.81;;;13.66;98.28
48926;BME280;39838;59.938;30.642;2023-07-28T08:00:00;99116.66;;;13.69;97.69
48926;BME280;39838;59.938;30.642;2023-07-28T08:02:34;99119.22;;;13.71;97.65
48926;BME280;39838;59.938;30.642;2023-07-28T08:05:01;99125.16;;;13.74;97.74
48926;BME280;39838;59.938;30.642;2023-07-28T08:07:30;99119.06;;;13.75;97.79
48926;BME280;39838;59.938;30.642;2023-07-28T08:09:57;99116.34;;;13.78;97.39
48926;BME280;39838;59.938;30.642;2023-07-28T08:12:25;99124.03;;;13.83;97.31
48926;BME280;39838;59.938;30.642;2023-07-28T08:14:52;99120.72;;;13.78;97.44
48926;BME280;39838;59.938;30.642;2023-07-28T08:17:19;99126.91;;;13.75;97.51
48926;BME280;39838;59.938;30.642;2023-07-28T08:19:48;99112.31;;;13.70;97.57
48926;BME280;39838;59.938;30.642;2023-07-28T08:22:15;99114.63;;;13.77;97.79
48926;BME280;39838;59.938;30.642;2023-07-28T08:24:42;99115.50;;;13.78;97.64
48926;BME280;39838;59.938;30.642;2023-07-28T08:27:09;99111.97;;;13.79;98.04
48926;BME280;39838;59.938;30.642;2023-07-28T08:29:36;99115.38;;;13.81;98.15
48926;BME280;39838;59.938;30.642;2023-07-28T08:32:04;99106.66;;;13.82;98.73
48926;BME280;39838;59.938;30.642;2023-07-28T08:34:31;99110.91;;;13.84;98.56
48926;BME280;39838;59.938;30.642;2023-07-28T08:37:00;99117.03;;;13.83;99.05
48926;BME280;39838;59.938;30.642;2023-07-28T08:39:27;99109.28;;;13.80;98.94
48926;BME280;39838;59.938;30.642;2023-07-28T08:41:58;99116.28;;;13.80;98.93
48926;BME280;39838;59.938;30.642;2023-07-28T08:44:26;99113.78;;;13.77;99.42
48926;BME280;39838;59.938;30.642;2023-07-28T08:46:53;99118.03;;;13.79;100.00
48926;BME280;39838;59.938;30.642;2023-07-28T08:49:20;99105.75;;;13.83;100.00
48926;BME280;39838;59.938;30.642;2023-07-28T08:51:49;99106.41;;;13.88;100.00
48926;BME280;39838;59.938;30.642;2023-07-28T08:54:18;99114.09;;;13.92;100.00
48926;BME280;39838;59.938;30.642;2023-07-28T08:56:46;99111.53;;;13.91;100.00
48926;BME280;39838;59.938;30.642;2023-07-28T08:59:20;99108.16;;;13.89;100.00
48926;BME280;39838;59.938;30.642;2023-07-28T09:01:50;99114.31;;;13.86;99.79
48926;BME280;39838;59.938;30.642;2023-07-28T09:04:17;99109.28;;;13.82;100.00
48926;BME280;39838;59.938;30.642;2023-07-28T09:06:46;99110.22;;;13.79;100.00
48926;BME280;39838;59.938;30.642;2023-07-28T09:09:14;99111.00;;;13.81;100.00
48926;BME280;39838;59.938;30.642;2023-07-28T09:11:46;99113.09;;;13.72;100.00
48926;BME280;39838;59.938;30.642;2023-07-28T09:14:16;99113.03;;;13.73;100.00
48926;BME280;39838;59.938;30.642;2023-07-28T09:16:44;99113.09;;;13.72;100.00
48926;BME280;39838;59.938;30.642;2023-07-28T09:19:12;99109.69;;;13.70;100.00
48926;BME280;39838;59.938;30.642;2023-07-28T09:21:41;99108.03;;;13.67;100.00
48926;BME280;39838;59.938;30.642;2023-07-28T09:24:10;99118.50;;;13.65;100.00
48926;BME280;39838;59.938;30.642;2023-07-28T09:26:38;99101.50;;;13.54;99.60
48926;BME280;39838;59.938;30.642;2023-07-28T09:29:17;99111.88;;;13.57;98.77
48926;BME280;39838;59.938;30.642;2023-07-28T09:31:45;99141.47;;;13.56;98.01
48926;BME280;39838;59.938;30.642;2023-07-28T09:34:23;99106.22;;;13.44;96.58
48926;BME280;39838;59.938;30.642;2023-07-28T09:36:53;99124.25;;;13.50;94.59
48926;BME280;39838;59.938;30.642;2023-07-28T09:39:21;99120.94;;;13.45;93.49
48926;BME280;39838;59.938;30.642;2023-07-28T09:41:48;99122.81;;;13.42;92.86
48926;BME280;39838;59.938;30.642;2023-07-28T09:44:17;99123.69;;;13.42;91.52
48926;BME280;39838;59.938;30.642;2023-07-28T09:46:50;99130.69;;;13.40;91.52
48926;BME280;39838;59.938;30.642;2023-07-28T09:49:21;99140.22;;;13.41;91.32
48926;BME280;39838;59.938;30.642;2023-07-28T09:51:53;99137.50;;;13.44;91.36
48926;BME280;39838;59.938;30.642;2023-07-28T09:54:24;99128.63;;;13.50;91.37
48926;BME280;39838;59.938;30.642;2023-07-28T09:56:55;99124.97;;;13.55;90.70
48926;BME280;39838;59.938;30.642;2023-07-28T09:59:29;99114.53;;;13.55;90.37
48926;BME280;39838;59.938;30.642;2023-07-28T10:01:57;99117.81;;;13.60;90.24
48926;BME280;39838;59.938;30.642;2023-07-28T10:04:25;99130.56;;;13.70;90.58
48926;BME280;39838;59.938;30.642;2023-07-28T10:06:53;99131.16;;;13.78;89.96
48926;BME280;39838;59.938;30.642;2023-07-28T10:09:24;99139.72;;;13.81;89.38
48926;BME280;39838;59.938;30.642;2023-07-28T10:11:52;99130.88;;;13.85;89.26
48926;BME280;39838;59.938;30.642;2023-07-28T10:14:28;99131.63;;;13.89;89.27
48926;BME280;39838;59.938;30.642;2023-07-28T10:16:57;99144.44;;;13.95;88.74
48926;BME280;39838;59.938;30.642;2023-07-28T10:19:25;99130.38;;;13.99;88.42
48926;BME280;39838;59.938;30.642;2023-07-28T10:21:59;99147.47;;;14.08;87.37
48926;BME280;39838;59.938;30.642;2023-07-28T10:24:51;99150.06;;;14.09;86.98
48926;BME280;39838;59.938;30.642;2023-07-28T10:27:32;99156.78;;;14.16;87.52
48926;BME280;39838;59.938;30.642;2023-07-28T10:30:10;99146.53;;;14.10;87.13
48926;BME280;39838;59.938;30.642;2023-07-28T10:32:39;99154.72;;;14.25;86.74
48926;BME280;39838;59.938;30.642;2023-07-28T10:35:07;99154.53;;;14.29;87.10
48926;BME280;39838;59.938;30.642;2023-07-28T10:37:35;99148.47;;;14.29;87.24
48926;BME280;39838;59.938;30.642;2023-07-28T10:40:31;99148.22;;;14.36;87.50
48926;BME280;39838;59.938;30.642;2023-07-28T10:42:59;99144.31;;;14.48;87.32
48926;BME280;39838;59.938;30.642;2023-07-28T10:45:29;99155.00;;;14.65;86.58
48926;BME280;39838;59.938;30.642;2023-07-28T10:47:58;99148.47;;;14.75;86.90
48926;BME280;39838;59.938;30.642;2023-07-28T10:50:27;99134.03;;;14.89;86.91
48926;BME280;39838;59.938;30.642;2023-07-28T10:52:54;99143.22;;;14.99;86.39
48926;BME280;39838;59.938;30.642;2023-07-28T10:55:22;99147.06;;;15.12;86.49
48926;BME280;39838;59.938;30.642;2023-07-28T10:57:51;99140.44;;;15.25;86.01
48926;BME280;39838;59.938;30.642;2023-07-28T11:00:20;99129.56;;;15.35;85.98
48926;BME280;39838;59.938;30.642;2023-07-28T11:02:52;99133.63;;;15.42;85.51
48926;BME280;39838;59.938;30.642;2023-07-28T11:05:21;99140.84;;;15.57;85.04
48926;BME280;39838;59.938;30.642;2023-07-28T11:07:49;99126.34;;;15.70;85.20
48926;BME280;39838;59.938;30.642;2023-07-28T11:10:16;99137.16;;;15.83;84.11
48926;BME280;39838;59.938;30.642;2023-07-28T11:12:46;99141.13;;;15.92;84.49
48926;BME280;39838;59.938;30.642;2023-07-28T11:15:15;99125.88;;;16.01;83.29
48926;BME280;39838;59.938;30.642;2023-07-28T11:17:46;99119.72;;;16.02;83.10
48926;BME280;39838;59.938;30.642;2023-07-28T11:20:19;99120.88;;;16.16;83.09
48926;BME280;39838;59.938;30.642;2023-07-28T11:22:52;99125.13;;;16.18;82.81
48926;BME280;39838;59.938;30.642;2023-07-28T11:25:20;99133.06;;;16.17;83.19
48926;BME280;39838;59.938;30.642;2023-07-28T11:27:47;99129.97;;;16.27;83.28
48926;BME280;39838;59.938;30.642;2023-07-28T11:30:15;99127.84;;;16.35;82.63
48926;BME280;39838;59.938;30.642;2023-07-28T11:32:44;99130.47;;;16.35;83.13
48926;BME280;39838;59.938;30.642;2023-07-28T11:35:13;99138.06;;;16.42;83.57
48926;BME280;39838;59.938;30.642;2023-07-28T11:37:43;99138.72;;;16.47;82.87
48926;BME280;39838;59.938;30.642;2023-07-28T11:40:14;99141.56;;;16.61;82.84
48926;BME280;39838;59.938;30.642;2023-07-28T11:42:44;99161.28;;;16.70;82.86
48926;BME280;39838;59.938;30.642;2023-07-28T11:45:13;99152.41;;;16.91;82.73
48926;BME280;39838;59.938;30.642;2023-07-28T11:47:52;99151.91;;;17.02;81.70
48926;BME280;39838;59.938;30.642;2023-07-28T11:50:22;99165.78;;;17.23;81.36
48926;BME280;39838;59.938;30.642;2023-07-28T11:52:51;99153.78;;;17.17;80.69
48926;BME280;39838;59.938;30.642;2023-07-28T11:55:19;99167.25;;;17.28;80.21
48926;BME280;39838;59.938;30.642;2023-07-28T11:57:48;99174.31;;;17.26;80.31
48926;BME280;39838;59.938;30.642;2023-07-28T12:00:16;99180.78;;;17.19;79.96
48926;BME280;39838;59.938;30.642;2023-07-28T12:02:44;99185.66;;;17.09;80.24
48926;BME280;39838;59.938;30.642;2023-07-28T12:05:13;99189.41;;;17.04;80.14
48926;BME280;39838;59.938;30.642;2023-07-28T12:07:41;99179.19;;;16.98;79.94
48926;BME280;39838;59.938;30.642;2023-07-28T12:10:10;99181.34;;;16.89;80.21
48926;BME280;39838;59.938;30.642;2023-07-28T12:12:43;99179.63;;;16.88;80.17
48926;BME280;39838;59.938;30.642;2023-07-28T12:15:23;99186.50;;;16.91;79.91
48926;BME280;39838;59.938;30.642;2023-07-28T12:18:10;99187.72;;;16.84;78.74
48926;BME280;39838;59.938;30.642;2023-07-28T12:20:40;99183.31;;;16.84;78.94
48926;BME280;39838;59.938;30.642;2023-07-28T12:23:08;99188.72;;;16.81;77.99
48926;BME280;39838;59.938;30.642;2023-07-28T12:25:37;99190.41;;;16.82;77.63
48926;BME280;39838;59.938;30.642;2023-07-28T12:28:05;99188.63;;;16.83;77.75
48926;BME280;39838;59.938;30.642;2023-07-28T12:30:32;99180.63;;;16.86;77.07
48926;BME280;39838;59.938;30.642;2023-07-28T12:33:00;99187.59;;;16.87;76.94
48926;BME280;39838;59.938;30.642;2023-07-28T12:35:28;99186.22;;;16.97;76.98
48926;BME280;39838;59.938;30.642;2023-07-28T12:37:57;99180.53;;;17.06;76.75
48926;BME280;39838;59.938;30.642;2023-07-28T12:40:27;99189.97;;;17.10;76.84
48926;BME280;39838;59.938;30.642;2023-07-28T12:42:56;99185.84;;;17.24;76.98
48926;BME280;39838;59.938;30.642;2023-07-28T12:45:24;99189.16;;;17.27;76.70
48926;BME280;39838;59.938;30.642;2023-07-28T12:47:52;99200.53;;;17.28;76.40
48926;BME280;39838;59.938;30.642;2023-07-28T12:50:20;99195.63;;;17.20;76.67
48926;BME280;39838;59.938;30.642;2023-07-28T12:52:47;99199.63;;;17.10;76.31
48926;BME280;39838;59.938;30.642;2023-07-28T12:55:15;99199.34;;;16.97;76.92
48926;BME280;39838;59.938;30.642;2023-07-28T12:57:42;99201.75;;;16.83;77.06